Time;durP1;ratioP1;P1;durP2;ratioP2;P2;SDS_P1;SDS_P2;PMS_P1;PMS_P2;Temp;Humidity;BMP_temperature;BMP_pressure;BME280_temperature;BME280_humidity;BME280_pressure;Samples;Min_cycle;Max_cycle;Signal;HPM_P1;HPM_P2
2022/01/01 00:02:01;;;;;;;37.60;30.63;;;;;;;;;;20911405;28;20048;-63
2022/01/01 00:12:03;;;;;;;45.70;34.10;;;;;;;;;;20910812;28;20060;-61
2022/01/01 00:22:07;;;;;;;26.45;18.17;;;;;;;;;;20910556;28;20136;-61
2022/01/01 00:32:09;;;;;;;21.90;13.32;;;;;;;;;;20910657;28;20455;-60
2022/01/01 00:42:11;;;;;;;18.50;14.10;;;;;;;;;;20909235;28;20501;-59
2022/01/01 00:52:13;;;;;;;19.05;13.23;;;;;;;;;;20910622;28;20048;-61
2022/01/01 01:02:15;;;;;;;19.77;14.25;;;;;;;;;;20920802;28;20504;-59
2022/01/01 01:12:24;;;;;;;22.05;14.98;;;;;;;;;;20923192;28;20049;-61
2022/01/01 01:22:29;;;;;;;21.90;14.63;;;;;;;;;;20922671;28;20128;-61
2022/01/01 01:32:32;;;;;;;19.05;13.98;;;;;;;;;;20920903;28;20052;-60
2022/01/01 01:42:35;;;;;;;19.08;13.40;;;;;;;;;;20920327;28;20494;-60
2022/01/01 01:52:38;;;;;;;19.85;14.18;;;;;;;;;;20919377;28;20139;-60
2022/01/01 02:02:41;;;;;;;15.27;10.40;;;;;;;;;;20919039;28;20056;-59
2022/01/01 02:12:51;;;;;;;19.17;12.32;;;;;;;;;;20918462;28;20053;-58
2022/01/01 02:23:00;;;;;;;21.00;15.05;;;;;;;;;;20918190;28;20051;-60
2022/01/01 02:33:05;;;;;;;21.60;16.38;;;;;;;;;;20915816;28;20135;-58
2022/01/01 02:43:12;;;;;;;17.58;13.18;;;;;;;;;;20914871;28;20045;-58
2022/01/01 02:53:16;;;;;;;18.52;12.73;;;;;;;;;;20915240;28;20049;-58
2022/01/01 03:03:25;;;;;;;11.45;8.32;;;;;;;;;;20914398;28;20055;-59
2022/01/01 03:13:36;;;;;;;10.70;7.68;;;;;;;;;;20913783;28;20108;-59
2022/01/01 03:23:52;;;;;;;12.82;8.23;;;;;;;;;;20908165;28;20131;-61
2022/01/01 03:34:06;;;;;;;17.30;10.02;;;;;;;;;;20894985;28;20057;-61
2022/01/01 03:44:15;;;;;;;11.45;8.10;;;;;;;;;;20913218;28;20091;-62
2022/01/01 03:54:26;;;;;;;11.10;8.15;;;;;;;;;;20912121;28;20191;-61
2022/01/01 04:04:35;;;;;;;11.15;8.05;;;;;;;;;;20912043;28;20455;-58
2022/01/01 04:14:59;;;;;;;13.57;8.95;;;;;;;;;;20911460;28;20049;-63
2022/01/01 04:25:22;;;;;;;12.52;8.73;;;;;;;;;;20910819;28;20049;-61
2022/01/01 04:35:43;;;;;;;11.43;7.78;;;;;;;;;;20919901;28;20048;-62
2022/01/01 04:46:05;;;;;;;14.45;8.80;;;;;;;;;;20927227;28;20053;-58
2022/01/01 04:56:28;;;;;;;13.13;9.00;;;;;;;;;;20924711;28;20087;-59
2022/01/01 05:06:35;;;;;;;11.45;7.95;;;;;;;;;;20925504;28;20055;-59
2022/01/01 05:16:43;;;;;;;13.43;8.18;;;;;;;;;;20923610;28;20056;-61
2022/01/01 05:26:49;;;;;;;12.77;9.23;;;;;;;;;;20922368;28;20067;-59
2022/01/01 05:36:53;;;;;;;13.47;9.07;;;;;;;;;;20920672;28;20187;-58
2022/01/01 05:46:57;;;;;;;12.25;8.60;;;;;;;;;;20921978;28;20076;-57
2022/01/01 05:57:02;;;;;;;12.18;9.00;;;;;;;;;;20920486;28;20053;-58
2022/01/01 06:07:07;;;;;;;14.73;9.88;;;;;;;;;;20920980;28;20098;-58
2022/01/01 06:17:10;;;;;;;12.35;8.18;;;;;;;;;;20919025;28;20049;-58
2022/01/01 06:27:14;;;;;;;13.32;8.93;;;;;;;;;;20918112;28;20048;-58
2022/01/01 06:37:18;;;;;;;14.13;9.57;;;;;;;;;;20918137;28;20357;-57
2022/01/01 06:47:21;;;;;;;15.70;7.85;;;;;;;;;;20916680;28;20045;-58
2022/01/01 06:57:24;;;;;;;11.82;8.07;;;;;;;;;;20914880;28;20060;-58
2022/01/01 07:07:28;;;;;;;9.85;6.93;;;;;;;;;;20915125;28;20450;-58
2022/01/01 07:17:33;;;;;;;11.18;7.90;;;;;;;;;;20914283;28;20053;-60
2022/01/01 07:27:40;;;;;;;12.20;7.68;;;;;;;;;;20913381;28;20144;-59
2022/01/01 07:37:44;;;;;;;11.18;7.57;;;;;;;;;;20913821;28;20111;-60
2022/01/01 07:47:47;;;;;;;14.48;8.65;;;;;;;;;;20912786;28;20055;-60
2022/01/01 07:57:50;;;;;;;12.63;7.03;;;;;;;;;;20911893;28;20085;-65
2022/01/01 08:07:53;;;;;;;12.00;8.05;;;;;;;;;;20919029;28;20045;-59
2022/01/01 08:17:56;;;;;;;11.93;7.70;;;;;;;;;;20928316;28;20056;-60
2022/01/01 08:28:00;;;;;;;11.75;7.43;;;;;;;;;;20927734;28;20056;-59
2022/01/01 08:38:04;;;;;;;11.93;7.30;;;;;;;;;;20927219;28;20049;-58
2022/01/01 08:48:07;;;;;;;10.68;7.22;;;;;;;;;;20924640;28;20065;-58
2022/01/01 08:58:09;;;;;;;10.15;7.57;;;;;;;;;;20924672;28;20049;-58
2022/01/01 09:08:11;;;;;;;18.85;10.77;;;;;;;;;;20925086;28;20106;-57
2022/01/01 09:18:16;;;;;;;15.87;8.93;;;;;;;;;;20922983;28;20049;-58
2022/01/01 09:28:19;;;;;;;9.57;6.53;;;;;;;;;;20922307;28;20049;-58
2022/01/01 09:38:21;;;;;;;12.45;7.25;;;;;;;;;;20921634;28;20049;-58
2022/01/01 09:48:25;;;;;;;10.45;7.18;;;;;;;;;;20921399;28;20052;-58
2022/01/01 09:58:30;;;;;;;10.80;6.72;;;;;;;;;;20918795;28;20053;-58
2022/01/01 10:08:36;;;;;;;9.55;6.60;;;;;;;;;;20919207;28;20044;-58
2022/01/01 10:18:45;;;;;;;12.38;7.85;;;;;;;;;;20918971;28;20412;-58
2022/01/01 10:28:48;;;;;;;8.90;5.78;;;;;;;;;;20916672;28;20063;-58
2022/01/01 10:38:51;;;;;;;10.32;6.40;;;;;;;;;;20917324;28;20057;-61
2022/01/01 10:48:57;;;;;;;8.10;5.60;;;;;;;;;;20917253;28;20057;-60
2022/01/01 10:59:01;;;;;;;10.63;6.28;;;;;;;;;;20914223;28;20041;-59
2022/01/01 11:09:06;;;;;;;6.32;3.92;;;;;;;;;;20913633;28;20048;-62
2022/01/01 11:19:08;;;;;;;15.52;9.73;;;;;;;;;;20911886;28;20103;-60
2022/01/01 11:29:10;;;;;;;7.82;4.40;;;;;;;;;;20910245;28;20056;-62
2022/01/01 11:39:14;;;;;;;9.02;5.30;;;;;;;;;;20911626;28;20063;-61
2022/01/01 11:49:25;;;;;;;8.88;4.88;;;;;;;;;;20909634;28;20098;-57
2022/01/01 11:59:38;;;;;;;5.65;4.43;;;;;;;;;;20910953;28;20049;-60
2022/01/01 12:09:50;;;;;;;12.63;5.80;;;;;;;;;;20911791;28;20079;-62
2022/01/01 12:19:57;;;;;;;7.40;5.30;;;;;;;;;;20911416;28;20226;-62
2022/01/01 12:30:04;;;;;;;6.55;4.82;;;;;;;;;;20910318;28;20076;-59
2022/01/01 12:40:09;;;;;;;9.95;5.20;;;;;;;;;;20909182;28;20076;-59
2022/01/01 12:50:11;;;;;;;6.37;4.07;;;;;;;;;;20908007;28;20056;-57
2022/01/01 13:00:23;;;;;;;6.72;4.70;;;;;;;;;;20904290;28;20057;-58
2022/01/01 13:10:25;;;;;;;7.35;4.18;;;;;;;;;;20922769;28;20107;-58
2022/01/01 13:20:27;;;;;;;6.38;4.70;;;;;;;;;;20921556;28;20568;-59
2022/01/01 13:30:32;;;;;;;5.78;3.47;;;;;;;;;;20922129;28;20152;-58
2022/01/01 13:40:36;;;;;;;8.18;3.47;;;;;;;;;;20921566;28;20049;-58
2022/01/01 13:50:40;;;;;;;8.50;5.43;;;;;;;;;;20921306;28;20547;-59
2022/01/01 14:00:52;;;;;;;7.15;3.80;;;;;;;;;;20922792;28;20076;-58
2022/01/01 14:10:56;;;;;;;6.85;3.65;;;;;;;;;;20918356;28;20097;-59
2022/01/01 14:21:00;;;;;;;;;;;;;;;;;;20918985;28;20052;-63
2022/01/01 14:31:03;;;;;;;7.50;3.22;;;;;;;;;;20917830;28;19947;-61
2022/01/01 14:41:08;;;;;;;4.05;3.00;;;;;;;;;;20917343;28;20045;-59
2022/01/01 14:51:19;;;;;;;9.30;4.97;;;;;;;;;;20916543;28;20161;-60
2022/01/01 15:01:22;;;;;;;5.22;3.00;;;;;;;;;;20916294;28;20049;-63
2022/01/01 15:11:30;;;;;;;6.50;3.63;;;;;;;;;;20914275;28;20076;-62
2022/01/01 15:21:56;;;;;;;5.78;3.45;;;;;;;;;;20913373;28;20083;-61
2022/01/01 15:42:26;;;;;;;6.45;4.15;;;;;;;;;;20912432;28;20071;-59
2022/01/01 15:52:30;;;;;;;3.97;3.20;;;;;;;;;;20912506;28;20053;-60
2022/01/01 16:02:35;;;;;;;10.38;6.38;;;;;;;;;;20910678;28;20555;-61
2022/01/01 16:12:40;;;;;;;7.22;4.80;;;;;;;;;;20910847;28;20546;-61
2022/01/01 16:22:43;;;;;;;9.60;5.18;;;;;;;;;;20911603;28;20133;-63
2022/01/01 16:32:46;;;;;;;12.18;6.65;;;;;;;;;;20923240;28;20102;-58
2022/01/01 16:42:48;;;;;;;14.98;9.48;;;;;;;;;;20927332;28;20125;-58
2022/01/01 16:52:53;;;;;;;10.48;7.35;;;;;;;;;;20925749;28;20091;-63
2022/01/01 17:02:56;;;;;;;11.77;8.63;;;;;;;;;;20925115;28;20412;-63
2022/01/01 17:12:59;;;;;;;15.93;11.00;;;;;;;;;;20924671;28;20136;-58
2022/01/01 17:23:04;;;;;;;14.27;9.27;;;;;;;;;;20922248;28;20052;-58
2022/01/01 17:33:17;;;;;;;12.95;9.05;;;;;;;;;;20920629;28;20507;-62
2022/01/01 17:43:23;;;;;;;17.77;11.13;;;;;;;;;;20921610;28;20405;-58
2022/01/01 17:53:26;;;;;;;14.93;7.72;;;;;;;;;;20919903;28;20049;-58
2022/01/01 18:03:37;;;;;;;22.80;13.18;;;;;;;;;;20919768;28;20405;-59
2022/01/01 18:13:45;;;;;;;14.45;7.28;;;;;;;;;;20919339;28;20053;-65
2022/01/01 18:24:03;;;;;;;14.85;7.13;;;;;;;;;;20917828;28;20157;-61
2022/01/01 18:34:05;;;;;;;9.68;5.47;;;;;;;;;;20917895;28;20048;-64
2022/01/01 18:44:07;;;;;;;10.27;5.57;;;;;;;;;;20916783;28;20127;-61
2022/01/01 18:54:11;;;;;;;11.75;6.10;;;;;;;;;;20915407;28;20052;-59
2022/01/01 19:04:16;;;;;;;13.27;6.47;;;;;;;;;;20915401;28;20077;-62
2022/01/01 19:14:19;;;;;;;7.70;5.30;;;;;;;;;;20913303;28;20057;-58
2022/01/01 19:24:21;;;;;;;7.63;3.85;;;;;;;;;;20913640;28;20060;-58
2022/01/01 19:34:27;;;;;;;8.48;4.05;;;;;;;;;;20913160;28;20413;-57
2022/01/01 19:44:33;;;;;;;7.78;4.30;;;;;;;;;;20912144;28;20049;-57
2022/01/01 19:54:35;;;;;;;7.43;4.40;;;;;;;;;;20911845;28;20198;-58
2022/01/01 20:04:38;;;;;;;5.82;4.07;;;;;;;;;;20911468;28;20481;-62
2022/01/01 20:14:40;;;;;;;9.40;5.57;;;;;;;;;;20910886;28;20049;-63
2022/01/01 20:24:42;;;;;;;10.23;4.78;;;;;;;;;;20909257;28;20476;-58
2022/01/01 20:34:44;;;;;;;7.55;4.50;;;;;;;;;;20911820;28;20409;-63
2022/01/01 20:44:47;;;;;;;9.13;4.93;;;;;;;;;;20910012;28;20049;-63
2022/01/01 20:54:49;;;;;;;9.07;5.57;;;;;;;;;;20909916;28;20413;-62
2022/01/01 21:04:53;;;;;;;11.48;6.97;;;;;;;;;;20909388;28;20045;-63
2022/01/01 21:14:55;;;;;;;8.98;5.65;;;;;;;;;;20913049;28;20053;-64
2022/01/01 21:24:58;;;;;;;9.18;5.60;;;;;;;;;;20923280;28;20049;-58
2022/01/01 21:35:00;;;;;;;8.63;5.43;;;;;;;;;;20922841;28;20139;-64
2022/01/01 21:45:04;;;;;;;11.25;6.43;;;;;;;;;;20922431;28;20132;-62
2022/01/01 21:55:06;;;;;;;8.68;6.28;;;;;;;;;;20921108;28;20132;-64
2022/01/01 22:05:09;;;;;;;10.55;6.55;;;;;;;;;;20920038;28;20411;-58
2022/01/01 22:15:11;;;;;;;9.35;6.55;;;;;;;;;;20918887;28;20409;-59
2022/01/01 22:25:13;;;;;;;11.68;6.65;;;;;;;;;;20918388;28;20473;-59
2022/01/01 22:35:16;;;;;;;15.48;8.00;;;;;;;;;;20917806;28;20061;-59
2022/01/01 22:45:18;;;;;;;12.07;7.72;;;;;;;;;;20916850;28;20472;-60
2022/01/01 22:55:21;;;;;;;9.82;6.00;;;;;;;;;;20915808;28;20467;-61
2022/01/01 23:05:24;;;;;;;8.50;5.50;;;;;;;;;;20915193;28;20053;-60
2022/01/01 23:15:27;;;;;;;7.30;5.18;;;;;;;;;;20914266;28;20052;-60
2022/01/01 23:25:35;;;;;;;8.20;4.68;;;;;;;;;;20914395;28;20073;-61
2022/01/01 23:35:46;;;;;;;8.77;5.60;;;;;;;;;;20913519;28;20444;-59
2022/01/01 23:45:51;;;;;;;9.95;6.22;;;;;;;;;;20912850;28;20416;-59
2022/01/01 23:55:57;;;;;;;11.32;6.68;;;;;;;;;;20911922;28;20064;-59
